createdAt,value
2023-03-25T00:00:19.149Z,1.50
2023-03-25T00:02:48.449Z,1.70
2023-03-25T00:05:16.671Z,1.33
2023-03-25T00:07:44.424Z,1.50
2023-03-25T00:10:12.239Z,1.30
2023-03-25T00:12:40.198Z,1.25
2023-03-25T00:15:08.449Z,1.48
2023-03-25T00:20:11.952Z,1.35
2023-03-25T00:22:44.452Z,1.48
2023-03-25T00:25:16.507Z,1.30
2023-03-25T00:27:46.299Z,1.40
2023-03-25T00:30:14.159Z,1.40
2023-03-25T00:32:41.477Z,1.30
2023-03-25T00:35:09.112Z,1.53
2023-03-25T00:37:38.804Z,1.40
2023-03-25T00:40:06.337Z,1.20
2023-03-25T00:42:34.958Z,1.33
2023-03-25T00:45:02.156Z,1.30
2023-03-25T00:47:29.462Z,1.30
2023-03-25T00:49:58.971Z,1.30
2023-03-25T00:52:28.715Z,1.20
2023-03-25T00:54:55.975Z,1.25
2023-03-25T00:57:23.235Z,1.30
2023-03-25T00:59:51.586Z,1.10
2023-03-25T01:02:21.478Z,1.60
2023-03-25T01:04:49.768Z,1.17
2023-03-25T01:09:46.640Z,1.33
2023-03-25T01:12:14.756Z,1.33
2023-03-25T01:14:42.365Z,1.15
2023-03-25T01:17:09.651Z,1.15
2023-03-25T01:19:36.901Z,1.30
2023-03-25T01:22:04.205Z,1.23
2023-03-25T01:24:31.883Z,1.20
2023-03-25T01:26:59.140Z,1.30
2023-03-25T01:29:26.394Z,1.40
2023-03-25T01:31:53.847Z,1.40
2023-03-25T01:34:21.117Z,1.20
2023-03-25T01:36:48.581Z,1.00
2023-03-25T01:39:16.749Z,1.50
2023-03-25T01:44:20.661Z,1.30
2023-03-25T01:46:49.395Z,1.35
2023-03-25T01:49:21.466Z,1.10
2023-03-25T01:51:49.118Z,1.20
2023-03-25T01:54:18.072Z,1.30
2023-03-25T01:56:47.464Z,1.00
2023-03-25T01:59:17.262Z,1.10
2023-03-25T02:01:45.722Z,1.20
2023-03-25T02:04:14.100Z,1.20
2023-03-25T02:06:46.559Z,1.15
2023-03-25T02:09:19.924Z,1.30
2023-03-25T02:11:47.128Z,1.33
2023-03-25T02:14:16.102Z,1.10
2023-03-25T02:16:50.078Z,1.30
2023-03-25T02:19:40.924Z,1.23
2023-03-25T02:22:27.019Z,1.20
2023-03-25T02:25:13.043Z,1.35
2023-03-25T02:27:46.089Z,1.00
2023-03-25T02:30:13.414Z,1.10
2023-03-25T02:32:43.746Z,1.10
2023-03-25T02:35:26.213Z,1.20
2023-03-25T02:37:53.466Z,1.02
2023-03-25T02:40:22.640Z,1.00
2023-03-25T02:42:52.705Z,1.23
2023-03-25T02:45:23.378Z,1.10
2023-03-25T02:47:52.971Z,1.23
2023-03-25T02:50:29.361Z,1.13
2023-03-25T02:52:59.172Z,1.17
2023-03-25T02:55:30.616Z,1.20
2023-03-25T02:57:59.283Z,1.25
2023-03-25T03:00:29.982Z,1.40
2023-03-25T03:03:02.123Z,1.00
2023-03-25T03:05:35.579Z,1.00
2023-03-25T03:08:18.988Z,1.20
2023-03-25T03:10:55.290Z,1.13
2023-03-25T03:13:29.537Z,1.00
2023-03-25T03:16:08.837Z,1.10
2023-03-25T03:18:57.258Z,1.20
2023-03-25T03:21:31.980Z,1.20
2023-03-25T03:23:59.318Z,1.10
2023-03-25T03:26:35.369Z,1.17
2023-03-25T03:29:08.586Z,1.20
2023-03-25T03:31:50.753Z,1.27
2023-03-25T03:34:30.761Z,1.15
2023-03-25T03:36:58.744Z,0.93
2023-03-25T03:39:39.365Z,1.13
2023-03-25T03:42:18.948Z,1.13
2023-03-25T03:44:48.826Z,1.05
2023-03-25T03:47:18.760Z,1.10
2023-03-25T03:49:48.767Z,1.23
2023-03-25T03:52:25.569Z,1.20
2023-03-25T03:54:56.090Z,1.10
2023-03-25T03:57:46.403Z,1.20
2023-03-25T04:00:25.837Z,1.08
2023-03-25T04:02:54.036Z,1.55
2023-03-25T04:08:02.561Z,1.13
2023-03-25T04:10:34.734Z,1.20
2023-03-25T04:13:05.608Z,1.10
2023-03-25T04:15:32.879Z,1.17
2023-03-25T04:18:01.715Z,1.00
2023-03-25T04:20:29.936Z,1.13
2023-03-25T04:25:25.393Z,1.07
2023-03-25T04:30:21.646Z,1.13
2023-03-25T04:32:48.924Z,1.20
2023-03-25T04:35:19.825Z,1.20
2023-03-25T04:37:49.046Z,1.33
2023-03-25T04:40:18.980Z,1.17
2023-03-25T04:42:46.743Z,1.40
2023-03-25T04:45:16.630Z,1.25
2023-03-25T04:47:47.044Z,1.10
2023-03-25T04:50:22.701Z,1.23
2023-03-25T04:52:50.542Z,1.10
2023-03-25T04:55:19.493Z,1.10
2023-03-25T04:57:51.501Z,1.10
2023-03-25T05:00:22.956Z,1.15
2023-03-25T05:02:56.868Z,1.00
2023-03-25T05:05:25.244Z,1.00
2023-03-25T05:07:53.990Z,1.20
2023-03-25T05:10:22.414Z,1.20
2023-03-25T05:12:49.825Z,1.10
2023-03-25T05:15:17.735Z,1.00
2023-03-25T05:17:45.377Z,1.30
2023-03-25T05:20:13.566Z,1.10
2023-03-25T05:25:10.353Z,1.00
2023-03-25T05:27:38.824Z,1.10
2023-03-25T05:30:06.808Z,1.10
2023-03-25T05:32:34.057Z,1.00
2023-03-25T05:35:01.649Z,1.17
2023-03-25T05:37:29.229Z,1.02
2023-03-25T05:39:56.498Z,1.02
2023-03-25T05:42:23.907Z,1.30
2023-03-25T05:44:51.615Z,0.93
2023-03-25T05:47:25.570Z,1.25
2023-03-25T05:49:54.350Z,1.30
2023-03-25T05:52:24.705Z,1.23
2023-03-25T05:54:52.080Z,1.30
2023-03-25T05:57:19.547Z,1.08
2023-03-25T05:59:47.986Z,1.25
2023-03-25T06:02:16.057Z,1.20
2023-03-25T06:04:43.425Z,1.10
2023-03-25T06:07:20.136Z,1.20
2023-03-25T06:09:47.970Z,1.45
2023-03-25T06:12:16.000Z,1.10
2023-03-25T06:14:45.441Z,1.33
2023-03-25T06:17:16.375Z,1.40
2023-03-25T06:19:43.603Z,1.40
2023-03-25T06:22:11.620Z,1.10
2023-03-25T06:24:42.272Z,1.52
2023-03-25T06:27:12.960Z,1.30
2023-03-25T06:29:43.271Z,1.30
2023-03-25T06:32:12.397Z,1.40
2023-03-25T06:34:42.521Z,1.23
2023-03-25T06:37:10.078Z,1.40
2023-03-25T06:39:40.488Z,1.33
2023-03-25T06:42:07.707Z,1.30
2023-03-25T06:44:34.961Z,1.30
2023-03-25T06:47:04.477Z,1.42
2023-03-25T06:49:31.799Z,1.70
2023-03-25T06:51:59.102Z,1.70
2023-03-25T06:54:26.368Z,1.43
2023-03-25T06:56:53.628Z,1.48
2023-03-25T06:59:20.922Z,1.30
2023-03-25T07:01:48.165Z,1.67
2023-03-25T07:04:15.664Z,1.60
2023-03-25T07:06:43.716Z,1.73
2023-03-25T07:09:11.239Z,1.95
2023-03-25T07:11:38.709Z,1.55
2023-03-25T07:14:08.415Z,1.65
2023-03-25T07:16:35.807Z,1.58
2023-03-25T07:19:03.058Z,1.50
2023-03-25T07:21:30.364Z,1.70
2023-03-25T07:23:57.636Z,1.60
2023-03-25T07:26:24.858Z,1.50
2023-03-25T07:28:52.109Z,1.90
2023-03-25T07:31:19.428Z,2.17
2023-03-25T07:33:46.714Z,2.10
2023-03-25T07:36:14.394Z,3.30
2023-03-25T07:38:41.676Z,2.15
2023-03-25T07:41:13.378Z,1.90
2023-03-25T07:43:40.743Z,2.65
2023-03-25T07:46:08.024Z,2.53
2023-03-25T07:48:36.834Z,2.50
2023-03-25T07:51:04.193Z,2.60
2023-03-25T07:53:31.453Z,2.70
2023-03-25T07:55:58.798Z,2.03
2023-03-25T07:58:26.460Z,2.23
2023-03-25T08:00:53.702Z,1.92
2023-03-25T08:03:21.382Z,2.50
2023-03-25T08:05:49.078Z,2.53
2023-03-25T08:08:16.886Z,2.30
2023-03-25T08:10:48.174Z,1.95
2023-03-25T08:13:15.547Z,1.77
2023-03-25T08:15:42.809Z,1.90
2023-03-25T08:18:10.020Z,2.30
2023-03-25T08:20:37.357Z,2.30
2023-03-25T08:23:04.710Z,2.00
2023-03-25T08:25:35.189Z,2.30
2023-03-25T08:28:02.629Z,2.10
2023-03-25T08:30:29.856Z,2.22
2023-03-25T08:32:57.205Z,2.10
2023-03-25T08:35:25.032Z,2.13
2023-03-25T08:37:55.118Z,2.33
2023-03-25T08:40:22.441Z,2.25
2023-03-25T08:42:49.694Z,1.80
2023-03-25T08:45:16.961Z,1.90
2023-03-25T08:47:45.766Z,2.00
2023-03-25T08:50:13.187Z,2.00
2023-03-25T08:52:41.259Z,2.10
2023-03-25T08:57:38.224Z,2.15
2023-03-25T09:00:13.033Z,2.05
2023-03-25T09:02:40.942Z,2.17
2023-03-25T09:05:08.826Z,1.98
2023-03-25T09:07:36.287Z,2.25
2023-03-25T09:10:04.149Z,1.95
2023-03-25T09:12:31.438Z,2.10
2023-03-25T09:14:58.776Z,2.00
2023-03-25T09:17:27.365Z,2.08
2023-03-25T09:19:55.438Z,2.20
2023-03-25T09:22:23.791Z,2.47
2023-03-25T09:24:51.048Z,1.90
2023-03-25T09:27:18.488Z,2.23
2023-03-25T09:29:45.947Z,2.40
2023-03-25T09:32:15.019Z,2.20
2023-03-25T09:34:42.293Z,2.10
2023-03-25T09:37:09.514Z,2.07
2023-03-25T09:39:36.761Z,2.35
2023-03-25T09:42:12.776Z,2.13
2023-03-25T09:44:48.801Z,2.30
2023-03-25T09:47:16.653Z,2.28
2023-03-25T09:49:47.060Z,2.05
2023-03-25T09:52:17.478Z,1.90
2023-03-25T09:54:52.916Z,1.98
2023-03-25T09:57:23.167Z,2.13
2023-03-25T09:59:51.528Z,2.20
2023-03-25T10:02:21.895Z,2.10
2023-03-25T10:04:49.164Z,2.13
2023-03-25T10:07:35.566Z,1.70
2023-03-25T10:10:05.878Z,2.25
2023-03-25T10:12:33.098Z,2.13
2023-03-25T10:15:19.009Z,2.15
2023-03-25T10:17:56.460Z,1.90
2023-03-25T10:20:55.838Z,2.20
2023-03-25T10:23:27.644Z,2.40
2023-03-25T10:25:57.858Z,1.90
2023-03-25T10:28:33.177Z,2.30
2023-03-25T10:31:01.096Z,2.10
2023-03-25T10:33:28.394Z,1.73
2023-03-25T10:35:57.768Z,2.10
2023-03-25T10:38:25.891Z,2.00
2023-03-25T10:41:12.156Z,2.13
2023-03-25T10:43:41.598Z,2.17
2023-03-25T10:46:17.217Z,2.60
2023-03-25T10:48:45.644Z,2.08
2023-03-25T10:51:17.077Z,2.20
2023-03-25T10:53:47.680Z,2.65
2023-03-25T10:56:17.677Z,2.10
2023-03-25T10:58:46.785Z,2.20
2023-03-25T11:01:18.256Z,2.25
2023-03-25T11:03:47.177Z,2.00
2023-03-25T11:06:22.424Z,2.55
2023-03-25T11:09:08.597Z,2.05
2023-03-25T11:11:36.638Z,2.40
2023-03-25T11:14:04.226Z,2.60
2023-03-25T11:16:41.956Z,2.50
2023-03-25T11:19:16.396Z,2.40
2023-03-25T11:21:47.758Z,2.53
2023-03-25T11:24:16.716Z,2.60
2023-03-25T11:26:44.004Z,2.65
2023-03-25T11:29:15.408Z,2.50
2023-03-25T11:31:43.540Z,2.53
2023-03-25T11:36:41.842Z,2.50
2023-03-25T11:39:18.674Z,2.15
2023-03-25T11:41:46.691Z,2.45
2023-03-25T11:44:23.250Z,2.53
2023-03-25T11:46:52.518Z,2.50
2023-03-25T11:49:21.849Z,2.15
2023-03-25T11:51:51.936Z,2.90
2023-03-25T11:54:20.178Z,2.83
2023-03-25T11:56:49.910Z,2.15
2023-03-25T11:59:27.444Z,2.30
2023-03-25T12:02:02.778Z,2.00
2023-03-25T12:04:30.458Z,2.50
2023-03-25T12:07:10.981Z,2.47
2023-03-25T12:09:38.353Z,2.20
2023-03-25T12:12:24.380Z,2.30
2023-03-25T12:15:05.043Z,2.17
2023-03-25T12:17:38.399Z,2.70
2023-03-25T12:20:22.381Z,2.38
2023-03-25T12:22:52.847Z,2.47
2023-03-25T12:25:20.190Z,2.40
2023-03-25T12:28:02.838Z,2.60
2023-03-25T12:30:32.884Z,2.38
2023-03-25T12:33:22.135Z,3.22
2023-03-25T12:35:49.825Z,4.13
2023-03-25T12:38:22.999Z,4.30
2023-03-25T12:41:05.576Z,3.33
2023-03-25T12:43:51.780Z,3.58
2023-03-25T12:46:19.013Z,3.67
2023-03-25T12:49:05.960Z,3.20
2023-03-25T12:51:39.410Z,3.67
2023-03-25T12:54:14.561Z,3.45
2023-03-25T12:56:41.918Z,3.55
2023-03-25T12:59:11.389Z,3.43
2023-03-25T13:01:45.426Z,3.33
2023-03-25T13:04:26.172Z,3.40
2023-03-25T13:07:16.760Z,3.00
2023-03-25T13:09:43.948Z,2.70
2023-03-25T13:12:31.767Z,3.17
2023-03-25T13:15:07.821Z,2.90
2023-03-25T13:17:39.181Z,4.97
2023-03-25T13:20:10.512Z,14.07
2023-03-25T13:22:44.451Z,11.38
2023-03-25T13:25:19.310Z,9.75
2023-03-25T13:27:47.710Z,8.23
2023-03-25T13:30:18.851Z,7.32
2023-03-25T13:32:50.886Z,14.13
2023-03-25T13:35:21.376Z,20.25
2023-03-25T13:37:53.940Z,12.48
2023-03-25T13:40:26.931Z,10.68
2023-03-25T13:43:06.536Z,9.85
2023-03-25T13:45:45.025Z,9.23
2023-03-25T13:48:18.453Z,9.57
2023-03-25T13:50:45.834Z,8.75
2023-03-25T13:53:28.326Z,8.50
2023-03-25T13:56:08.646Z,9.35
2023-03-25T13:59:00.825Z,8.50
2023-03-25T14:01:33.854Z,8.52
2023-03-25T14:04:04.134Z,9.00
2023-03-25T14:06:35.035Z,8.77
2023-03-25T14:09:02.245Z,9.25
2023-03-25T14:11:29.495Z,9.80
2023-03-25T14:13:56.724Z,9.20
2023-03-25T14:16:29.037Z,8.83
2023-03-25T14:19:00.461Z,8.55
2023-03-25T14:21:31.165Z,9.40
2023-03-25T14:24:02.724Z,8.23
2023-03-25T14:26:30.076Z,8.60
2023-03-25T14:28:58.145Z,8.40
2023-03-25T14:34:02.221Z,7.68
2023-03-25T14:36:52.420Z,6.35
2023-03-25T14:39:25.816Z,6.15
2023-03-25T14:41:56.404Z,6.35
2023-03-25T14:44:28.801Z,5.43
2023-03-25T14:47:20.757Z,6.15
2023-03-25T14:49:54.405Z,5.35
2023-03-25T14:52:48.199Z,5.05
2023-03-25T14:55:19.848Z,4.85
2023-03-25T14:57:48.010Z,4.70
2023-03-25T15:02:50.908Z,5.68
2023-03-25T15:05:19.717Z,4.60
2023-03-25T15:07:56.765Z,5.13
2023-03-25T15:10:32.583Z,4.78
2023-03-25T15:13:06.295Z,4.80
2023-03-25T15:15:33.701Z,4.40
2023-03-25T15:18:01.302Z,4.45
2023-03-25T15:20:31.690Z,4.40
2023-03-25T15:23:17.689Z,4.07
2023-03-25T15:25:46.838Z,4.72
2023-03-25T15:28:38.856Z,4.45
2023-03-25T15:31:06.776Z,4.35
2023-03-25T15:33:34.804Z,4.53
2023-03-25T15:36:02.009Z,4.53
2023-03-25T15:38:30.282Z,4.23
2023-03-25T15:43:31.687Z,4.60
2023-03-25T15:46:07.537Z,4.25
2023-03-25T15:48:34.794Z,4.55
2023-03-25T15:51:05.046Z,4.82
2023-03-25T15:53:52.047Z,4.63
2023-03-25T15:56:24.472Z,4.17
2023-03-25T15:58:51.742Z,4.43
2023-03-25T16:01:30.067Z,4.67
2023-03-25T16:04:00.153Z,4.00
2023-03-25T16:06:28.037Z,4.07
2023-03-25T16:08:57.525Z,4.13
2023-03-25T16:11:26.763Z,7.45
2023-03-25T16:14:12.513Z,4.80
2023-03-25T16:16:41.651Z,4.53
2023-03-25T16:19:19.179Z,4.50
2023-03-25T16:21:50.455Z,4.07
2023-03-25T16:24:21.325Z,4.55
2023-03-25T16:26:49.801Z,3.78
2023-03-25T16:29:19.318Z,3.97
2023-03-25T16:31:56.520Z,4.50
2023-03-25T16:34:23.841Z,4.30
2023-03-25T16:36:52.426Z,4.07
2023-03-25T16:39:20.261Z,4.50
2023-03-25T16:41:48.823Z,4.05
2023-03-25T16:44:17.844Z,4.30
2023-03-25T16:46:46.023Z,4.07
2023-03-25T16:51:44.727Z,5.38
2023-03-25T16:54:20.316Z,6.20
2023-03-25T16:56:47.898Z,6.13
2023-03-25T16:59:15.259Z,5.88
2023-03-25T17:01:45.077Z,4.93
2023-03-25T17:04:21.986Z,5.80
2023-03-25T17:07:10.147Z,5.43
2023-03-25T17:09:42.780Z,5.50
2023-03-25T17:12:11.763Z,5.15
2023-03-25T17:14:41.038Z,4.70
2023-03-25T17:17:09.804Z,5.20
2023-03-25T17:19:37.997Z,5.05
2023-03-25T17:24:42.549Z,4.50
2023-03-25T17:27:22.078Z,4.55
2023-03-25T17:29:50.203Z,4.30
2023-03-25T17:32:21.658Z,4.13
2023-03-25T17:35:19.035Z,4.60
2023-03-25T17:37:48.272Z,4.25
2023-03-25T17:40:21.372Z,4.32
2023-03-25T17:42:48.614Z,4.05
2023-03-25T17:45:16.975Z,4.15
2023-03-25T17:47:44.361Z,3.58
2023-03-25T17:50:16.146Z,4.25
2023-03-25T17:52:43.431Z,3.95
2023-03-25T17:55:10.863Z,3.50
2023-03-25T17:57:38.816Z,4.50
2023-03-25T18:00:15.118Z,4.00
2023-03-25T18:02:42.681Z,3.90
2023-03-25T18:05:10.986Z,3.97
2023-03-25T18:07:38.244Z,4.55
2023-03-25T18:10:19.443Z,4.15
2023-03-25T18:12:47.009Z,3.97
2023-03-25T18:15:14.310Z,3.70
2023-03-25T18:17:41.623Z,4.13
2023-03-25T18:20:16.667Z,3.63
2023-03-25T18:22:44.265Z,3.83
2023-03-25T18:25:12.346Z,3.50
2023-03-25T18:27:43.700Z,3.95
2023-03-25T18:30:23.026Z,3.88
2023-03-25T18:32:50.666Z,3.60
2023-03-25T18:35:18.184Z,3.60
2023-03-25T18:37:46.623Z,3.72
2023-03-25T18:40:21.165Z,3.35
2023-03-25T18:42:48.434Z,3.60
2023-03-25T18:45:15.919Z,3.78
2023-03-25T18:47:43.194Z,3.55
2023-03-25T18:50:23.503Z,3.30
2023-03-25T18:52:50.883Z,3.42
2023-03-25T18:55:18.428Z,3.23
2023-03-25T18:57:45.667Z,3.45
2023-03-25T19:00:16.295Z,3.27
2023-03-25T19:02:43.640Z,3.70
2023-03-25T19:05:11.969Z,4.03
2023-03-25T19:07:39.769Z,3.75
2023-03-25T19:10:09.175Z,3.40
2023-03-25T19:12:36.671Z,3.35
2023-03-25T19:15:03.884Z,3.30
2023-03-25T19:17:31.201Z,3.17
2023-03-25T19:19:58.553Z,3.42
2023-03-25T19:22:25.919Z,3.33
2023-03-25T19:24:53.133Z,3.28
2023-03-25T19:27:20.543Z,3.30
2023-03-25T19:29:47.760Z,3.37
2023-03-25T19:32:15.372Z,3.42
2023-03-25T19:34:46.375Z,3.20
2023-03-25T19:37:13.888Z,3.28
2023-03-25T19:39:42.670Z,2.92
2023-03-25T19:42:09.954Z,3.35
2023-03-25T19:44:37.177Z,3.37
2023-03-25T19:47:06.848Z,3.13
2023-03-25T19:49:39.684Z,3.25
2023-03-25T19:52:07.870Z,3.15
2023-03-25T19:54:35.184Z,3.33
2023-03-25T19:57:02.462Z,3.03
2023-03-25T19:59:29.797Z,3.37
2023-03-25T20:01:57.164Z,3.20
2023-03-25T20:04:24.417Z,3.72
2023-03-25T20:06:51.613Z,3.50
2023-03-25T20:09:18.844Z,3.10
2023-03-25T20:11:46.144Z,3.22
2023-03-25T20:14:13.574Z,2.60
2023-03-25T20:16:40.839Z,3.53
2023-03-25T20:19:08.213Z,2.67
2023-03-25T20:21:35.459Z,2.77
2023-03-25T20:24:02.669Z,3.27
2023-03-25T20:26:30.015Z,3.17
2023-03-25T20:28:57.237Z,3.28
2023-03-25T20:31:25.137Z,3.08
2023-03-25T20:33:52.467Z,2.92
2023-03-25T20:36:21.560Z,3.07
2023-03-25T20:38:57.208Z,2.78
2023-03-25T20:41:25.674Z,2.80
2023-03-25T20:43:53.046Z,3.00
2023-03-25T20:46:23.904Z,3.03
2023-03-25T20:48:51.233Z,3.20
2023-03-25T20:51:18.443Z,2.83
2023-03-25T20:53:46.350Z,2.92
2023-03-25T20:56:13.594Z,3.08
2023-03-25T20:58:40.790Z,3.13
2023-03-25T21:01:08.141Z,3.10
2023-03-25T21:03:35.460Z,3.00
2023-03-25T21:06:10.435Z,2.70
2023-03-25T21:08:48.129Z,3.03
2023-03-25T21:11:16.084Z,2.70
2023-03-25T21:13:43.508Z,2.70
2023-03-25T21:16:11.138Z,2.85
2023-03-25T21:18:38.491Z,3.05
2023-03-25T21:21:05.848Z,2.80
2023-03-25T21:23:33.136Z,2.60
2023-03-25T21:26:01.160Z,2.57
2023-03-25T21:28:29.184Z,2.95
2023-03-25T21:31:06.860Z,3.30
2023-03-25T21:33:37.152Z,2.67
2023-03-25T21:36:08.797Z,2.50
2023-03-25T21:38:36.717Z,2.67
2023-03-25T21:41:04.901Z,2.47
2023-03-25T21:46:05.572Z,2.47
2023-03-25T21:48:34.378Z,2.65
2023-03-25T21:51:01.714Z,2.47
2023-03-25T21:53:32.738Z,2.37
2023-03-25T21:56:00.635Z,2.60
2023-03-25T21:58:28.473Z,2.83
2023-03-25T22:01:02.723Z,2.83
2023-03-25T22:03:35.294Z,2.78
2023-03-25T22:06:06.764Z,2.60
2023-03-25T22:08:34.131Z,2.58
2023-03-25T22:11:30.480Z,2.87
2023-03-25T22:13:58.242Z,2.40
2023-03-25T22:16:25.946Z,2.80
2023-03-25T22:18:53.613Z,2.72
2023-03-25T22:21:26.064Z,2.50
2023-03-25T22:23:57.738Z,2.45
2023-03-25T22:26:25.546Z,2.30
2023-03-25T22:28:56.706Z,2.50
2023-03-25T22:31:26.125Z,2.67
2023-03-25T22:33:55.051Z,2.83
2023-03-25T22:36:22.297Z,2.40
2023-03-25T22:38:51.439Z,2.88
2023-03-25T22:41:19.356Z,2.50
2023-03-25T22:43:47.107Z,2.35
2023-03-25T22:46:15.370Z,2.47
2023-03-25T22:48:43.085Z,2.78
2023-03-25T22:51:11.922Z,2.33
2023-03-25T22:53:39.588Z,2.33
2023-03-25T22:56:07.075Z,2.67
2023-03-25T22:58:34.637Z,2.25
2023-03-25T23:01:02.927Z,2.20
2023-03-25T23:03:31.081Z,2.28
2023-03-25T23:08:30.074Z,2.60
2023-03-25T23:10:58.430Z,2.38
2023-03-25T23:13:26.295Z,2.40
2023-03-25T23:16:03.997Z,2.20
2023-03-25T23:18:31.264Z,2.33
2023-03-25T23:20:59.589Z,2.53
2023-03-25T23:23:28.880Z,2.40
2023-03-25T23:26:16.446Z,2.10
2023-03-25T23:28:45.088Z,2.20
2023-03-25T23:31:19.646Z,2.20
2023-03-25T23:33:47.976Z,2.58
2023-03-25T23:38:44.278Z,2.25
2023-03-25T23:41:16.172Z,2.30
2023-03-25T23:43:43.501Z,2.30
2023-03-25T23:46:12.078Z,2.40
2023-03-25T23:48:42.689Z,2.08
2023-03-25T23:51:14.337Z,2.30
2023-03-25T23:53:45.281Z,2.22
2023-03-25T23:56:12.930Z,2.13
2023-03-25T23:58:40.986Z,2.38
